Time;durP1;ratioP1;P1;durP2;ratioP2;P2;SDS_P1;SDS_P2;PMS_P1;PMS_P2;Temp;Humidity;BMP_temperature;BMP_pressure;BME280_temperature;BME280_humidity;BME280_pressure;Samples;Min_cycle;Max_cycle;Signal;HPM_P1;HPM_P2
2022/01/30 00:01:42;;;;;;;24.40;4.25;;;6.30;99.90;;;;;;5042916;28;20045;-52
2022/01/30 00:04:07;;;;;;;24.55;3.83;;;6.20;99.90;;;;;;5033536;28;20057;-54
2022/01/30 00:06:33;;;;;;;20.35;3.42;;;6.30;99.90;;;;;;5043001;28;20055;-52
2022/01/30 00:08:59;;;;;;;29.38;4.65;;;6.30;99.90;;;;;;5043444;28;20044;-52
2022/01/30 00:11:29;;;;;;;18.40;4.10;;;6.20;99.90;;;;;;5045283;28;20048;-52
2022/01/30 00:13:55;;;;;;;19.88;4.28;;;6.30;99.90;;;;;;5041473;28;20451;-52
2022/01/30 00:16:23;;;;;;;23.80;4.47;;;6.20;99.90;;;;;;5043974;28;20072;-50
2022/01/30 00:18:59;;;;;;;18.65;3.50;;;6.20;99.90;;;;;;5041375;28;20048;-52
2022/01/30 00:24:03;;;;;;;21.15;4.25;;;6.20;99.90;;;;;;5042771;28;20549;-51
2022/01/30 00:26:32;;;;;;;27.95;5.35;;;6.20;99.90;;;;;;5020752;28;20040;-53
2022/01/30 00:28:58;;;;;;;22.80;3.50;;;6.20;99.90;;;;;;5028666;28;20091;-49
2022/01/30 00:31:26;;;;;;;19.80;3.53;;;6.20;99.90;;;;;;5023583;28;20053;-51
2022/01/30 00:33:52;;;;;;;21.95;3.85;;;6.20;99.90;;;;;;5043297;28;20502;-50
2022/01/30 00:36:18;;;;;;;20.48;4.00;;;6.10;99.90;;;;;;5041675;28;20036;-53
2022/01/30 00:38:43;;;;;;;21.55;3.50;;;6.10;99.90;;;;;;5041630;28;20708;-50
2022/01/30 00:41:09;;;;;;;22.80;4.65;;;6.00;99.90;;;;;;5044781;28;20404;-49
2022/01/30 00:43:35;;;;;;;17.10;3.10;;;6.00;99.90;;;;;;5045112;28;20048;-50
2022/01/30 00:46:00;;;;;;;19.52;3.72;;;5.80;99.90;;;;;;5043253;28;20037;-52
2022/01/30 00:48:26;;;;;;;27.45;4.75;;;5.80;99.90;;;;;;5041475;28;21451;-49
2022/01/30 00:50:52;;;;;;;23.77;3.85;;;5.80;99.90;;;;;;5048179;28;20177;-51
2022/01/30 00:53:18;;;;;;;19.25;3.72;;;5.70;99.90;;;;;;5052196;28;20132;-49
2022/01/30 00:55:43;;;;;;;18.60;3.47;;;5.70;99.90;;;;;;5049717;28;20045;-49
2022/01/30 00:58:09;;;;;;;16.38;3.63;;;5.60;99.90;;;;;;5035358;28;20055;-49
2022/01/30 01:00:36;;;;;;;22.85;4.10;;;5.60;99.90;;;;;;5055149;28;20599;-50
2022/01/30 01:03:02;;;;;;;25.13;4.18;;;5.50;99.90;;;;;;5053911;28;20044;-50
2022/01/30 01:05:29;;;;;;;19.40;4.03;;;5.50;99.90;;;;;;5052469;28;20041;-48
2022/01/30 01:07:57;;;;;;;25.13;4.70;;;5.50;99.90;;;;;;5054840;28;20491;-49
2022/01/30 01:10:38;;;;;;;24.48;4.75;;;5.40;99.90;;;;;;5053022;28;20045;-49
2022/01/30 01:23:45;;;;;;;21.25;4.55;;;5.50;99.90;;;;;;5046936;28;20049;-49
2022/01/30 01:26:11;;;;;;;;;;;5.60;99.90;;;;;;5046967;28;20494;-49
2022/01/30 01:28:37;;;;;;;23.92;4.13;;;5.60;99.90;;;;;;5047476;28;19928;-49
2022/01/30 01:31:03;;;;;;;24.88;4.18;;;5.60;99.90;;;;;;5045927;28;20164;-49
2022/01/30 01:33:49;;;;;;;21.42;4.50;;;5.60;99.90;;;;;;5045967;28;20723;-49
2022/01/30 01:36:14;;;;;;;18.83;3.75;;;5.60;99.90;;;;;;5047392;28;20087;-49
2022/01/30 01:38:40;;;;;;;22.30;3.78;;;5.50;99.90;;;;;;5044069;28;20071;-51
2022/01/30 01:41:05;;;;;;;20.75;3.95;;;5.60;99.90;;;;;;5047365;28;20044;-49
2022/01/30 01:43:32;;;;;;;21.75;4.22;;;5.50;99.90;;;;;;5045247;28;20087;-49
2022/01/30 01:46:00;;;;;;;22.33;3.72;;;5.50;99.90;;;;;;5046197;28;20383;-51
2022/01/30 01:48:25;;;;;;;21.65;3.58;;;5.50;99.90;;;;;;5045598;28;21178;-49
2022/01/30 01:50:55;;;;;;;22.92;4.18;;;5.50;99.90;;;;;;5046624;28;20032;-52
2022/01/30 01:53:24;;;;;;;20.83;3.67;;;5.40;99.90;;;;;;5045155;28;20056;-51
2022/01/30 01:55:50;;;;;;;19.85;3.90;;;5.40;99.90;;;;;;5041786;28;20151;-53
2022/01/30 01:58:16;;;;;;;19.95;3.92;;;5.30;99.90;;;;;;5043849;28;20150;-54
2022/01/30 02:00:42;;;;;;;18.88;3.80;;;5.30;99.90;;;;;;5043802;28;20060;-48
2022/01/30 02:03:09;;;;;;;17.83;3.70;;;5.30;99.90;;;;;;5044120;28;20128;-50
2022/01/30 02:05:36;;;;;;;15.73;3.33;;;5.30;99.90;;;;;;5027154;28;20681;-50
2022/01/30 02:24:21;;;;;;;13.80;2.70;;;5.20;99.90;;;;;;5049566;28;20049;-49
2022/01/30 02:26:47;;;;;;;13.45;2.42;;;5.20;99.90;;;;;;5022700;28;21384;-53
2022/01/30 02:29:13;;;;;;;17.63;3.20;;;5.20;99.90;;;;;;5048495;28;20045;-52
2022/01/30 02:31:41;;;;;;;20.08;3.58;;;5.20;99.90;;;;;;5046287;28;20052;-52
2022/01/30 02:34:08;;;;;;;23.58;4.20;;;5.20;99.90;;;;;;5047106;28;20440;-50
2022/01/30 02:36:49;;;;;;;16.77;2.90;;;5.10;99.90;;;;;;5045803;28;20045;-53
2022/01/30 02:39:16;;;;;;;15.52;3.28;;;5.20;99.90;;;;;;5028093;28;20040;-51
2022/01/30 02:41:42;;;;;;;22.13;4.00;;;5.10;99.90;;;;;;5046923;28;20056;-52
2022/01/30 02:44:17;;;;;;;20.95;3.80;;;5.10;99.90;;;;;;5044681;28;20059;-50
2022/01/30 02:46:46;;;;;;;20.25;3.88;;;5.20;99.90;;;;;;5046590;28;20049;-52
2022/01/30 02:49:26;;;;;;;21.35;4.30;;;5.20;99.90;;;;;;5049223;28;20055;-49
2022/01/30 02:54:19;;;;;;;30.15;9.55;;;5.40;99.90;;;;;;5045883;28;20045;-51
2022/01/30 02:56:45;;;;;;;32.40;12.70;;;5.50;99.90;;;;;;5026061;28;20059;-53
2022/01/30 02:59:11;;;;;;;33.15;13.15;;;5.50;99.90;;;;;;5042044;28;20033;-50
2022/01/30 03:01:37;;;;;;;28.42;8.30;;;5.60;99.90;;;;;;5041836;28;20339;-53
2022/01/30 03:04:03;;;;;;;28.70;7.43;;;5.70;99.90;;;;;;5043134;28;20052;-52
2022/01/30 03:06:29;;;;;;;29.15;7.35;;;5.70;99.90;;;;;;5043836;28;20124;-53
2022/01/30 03:08:55;;;;;;;24.77;5.20;;;5.60;99.90;;;;;;5044395;28;20505;-55
2022/01/30 03:11:20;;;;;;;25.45;4.00;;;5.70;99.90;;;;;;5044317;28;20061;-53
2022/01/30 03:13:46;;;;;;;20.73;3.83;;;5.80;99.90;;;;;;5024233;28;20175;-54
2022/01/30 03:16:12;;;;;;;29.58;5.22;;;5.80;99.90;;;;;;5041357;28;20037;-54
2022/01/30 03:18:38;;;;;;;24.90;5.15;;;5.90;99.90;;;;;;5042470;28;20131;-51
2022/01/30 03:21:04;;;;;;;23.60;4.18;;;6.00;99.90;;;;;;5042360;28;20048;-51
2022/01/30 03:23:30;;;;;;;23.65;4.88;;;5.90;99.90;;;;;;5043691;28;20033;-51
2022/01/30 03:25:59;;;;;;;21.10;3.83;;;5.90;99.90;;;;;;5040926;28;20053;-53
2022/01/30 03:28:27;;;;;;;16.33;3.90;;;6.00;99.90;;;;;;5048756;28;20178;-49
2022/01/30 03:30:57;;;;;;;20.63;3.70;;;6.00;99.90;;;;;;5046407;28;20051;-53
2022/01/30 03:33:23;;;;;;;15.82;3.00;;;6.00;99.90;;;;;;5047413;28;20489;-53
2022/01/30 03:35:48;;;;;;;18.40;3.42;;;6.00;99.90;;;;;;5047938;28;20101;-51
2022/01/30 03:38:15;;;;;;;20.33;3.75;;;5.90;99.90;;;;;;5048069;28;20060;-53
2022/01/30 03:40:43;;;;;;;20.92;3.88;;;5.80;99.90;;;;;;5049263;28;20041;-53
2022/01/30 03:43:08;;;;;;;15.25;3.20;;;5.70;99.90;;;;;;5042085;28;20064;-54
2022/01/30 03:45:53;;;;;;;20.02;3.42;;;5.70;99.90;;;;;;5043193;28;20146;-53
2022/01/30 03:48:18;;;;;;;18.13;3.65;;;5.70;99.90;;;;;;5042630;28;20092;-51
2022/01/30 03:50:45;;;;;;;14.95;2.95;;;5.60;99.90;;;;;;5040528;28;20151;-51
2022/01/30 03:53:11;;;;;;;19.77;4.35;;;5.50;99.90;;;;;;5042508;28;20201;-53
2022/01/30 03:55:37;;;;;;;18.08;3.15;;;5.40;99.90;;;;;;5042105;28;20510;-52
2022/01/30 03:58:03;;;;;;;21.77;3.95;;;5.40;99.90;;;;;;5041432;28;20045;-51
2022/01/30 04:00:29;;;;;;;24.73;4.45;;;5.30;99.90;;;;;;5041719;28;20048;-52
2022/01/30 04:02:55;;;;;;;21.95;4.57;;;5.30;99.90;;;;;;5043359;28;20098;-50
2022/01/30 04:05:20;;;;;;;27.83;4.63;;;5.20;99.90;;;;;;5042426;28;20041;-53
2022/01/30 04:07:46;;;;;;;29.90;5.82;;;5.30;99.90;;;;;;5043446;28;20095;-52
2022/01/30 04:10:14;;;;;;;27.83;4.85;;;5.20;99.90;;;;;;5042459;28;20055;-53
2022/01/30 04:12:40;;;;;;;28.90;5.63;;;5.30;99.90;;;;;;5041726;28;20060;-52
2022/01/30 04:15:07;;;;;;;30.45;5.13;;;5.20;99.90;;;;;;5042770;28;20310;-53
2022/01/30 04:17:33;;;;;;;28.17;5.00;;;5.20;99.90;;;;;;5048033;28;20621;-53
2022/01/30 04:19:59;;;;;;;30.60;5.55;;;5.20;99.90;;;;;;5048834;28;20116;-51
2022/01/30 04:22:24;;;;;;;28.00;5.57;;;5.30;99.90;;;;;;5047168;28;20138;-51
2022/01/30 04:24:50;;;;;;;29.25;5.32;;;5.20;99.90;;;;;;5041940;28;20052;-52
2022/01/30 04:27:15;;;;;;;30.90;5.53;;;5.20;99.90;;;;;;5041868;28;20045;-51
2022/01/30 04:29:41;;;;;;;41.35;6.25;;;5.20;99.90;;;;;;5042784;28;20041;-52
2022/01/30 04:32:08;;;;;;;29.10;5.50;;;5.20;99.90;;;;;;5042173;28;20057;-51
2022/01/30 04:34:34;;;;;;;33.42;5.60;;;5.30;99.90;;;;;;5023312;28;20128;-51
2022/01/30 04:53:26;;;;;;;31.55;5.30;;;5.40;99.90;;;;;;5044345;28;20409;-54
2022/01/30 04:59:06;;;;;;;31.25;5.63;;;5.30;99.90;;;;;;4965177;28;20514;-54
2022/01/30 05:01:55;;;;;;;34.70;6.22;;;5.30;99.90;;;;;;4965653;28;20106;-52
2022/01/30 05:04:40;;;;;;;34.55;5.63;;;5.30;99.90;;;;;;4971578;28;20739;-49
2022/01/30 05:09:33;;;;;;;25.52;4.45;;;5.40;99.90;;;;;;4976387;28;20058;-55
2022/01/30 05:11:58;;;;;;;31.73;5.15;;;5.50;99.90;;;;;;4967203;28;20073;-53
2022/01/30 05:14:28;;;;;;;33.63;5.75;;;5.50;99.90;;;;;;4971098;28;20142;-53
2022/01/30 05:16:53;;;;;;;36.70;6.38;;;5.50;99.90;;;;;;4965917;28;20073;-53
2022/01/30 05:19:19;;;;;;;34.13;7.25;;;5.40;99.90;;;;;;4973756;28;20434;-52
2022/01/30 05:21:45;;;;;;;28.42;5.00;;;5.30;99.90;;;;;;4971277;28;20428;-53
2022/01/30 05:24:11;;;;;;;33.80;6.30;;;5.20;99.90;;;;;;4968411;28;20649;-53
2022/01/30 05:26:41;;;;;;;42.45;6.30;;;5.20;99.90;;;;;;4964871;28;20057;-52
2022/01/30 05:29:07;;;;;;;31.85;6.57;;;5.20;99.90;;;;;;4967028;28;20485;-54
2022/01/30 05:31:33;;;;;;;34.50;5.97;;;5.20;99.90;;;;;;4969436;28;20073;-54
2022/01/30 05:33:59;;;;;;;36.33;5.55;;;5.20;99.90;;;;;;4952162;28;20046;-52
2022/01/30 05:36:24;;;;;;;30.17;6.10;;;5.10;99.90;;;;;;5038975;28;20067;-53
2022/01/30 05:38:51;;;;;;;40.22;6.68;;;5.10;99.90;;;;;;5053727;28;20040;-52
2022/01/30 05:41:17;;;;;;;36.25;6.70;;;5.10;99.90;;;;;;5036028;28;20037;-54
2022/01/30 05:43:45;;;;;;;39.90;6.25;;;5.10;99.90;;;;;;5053725;28;20037;-51
2022/01/30 05:46:16;;;;;;;;;;;5.10;99.90;;;;;;5053251;28;20292;-53
2022/01/30 05:48:42;;;;;;;31.67;5.70;;;5.10;99.90;;;;;;5053591;28;19932;-54
2022/01/30 05:51:08;;;;;;;38.58;6.28;;;5.20;99.90;;;;;;5051997;28;20466;-53
2022/01/30 05:53:33;;;;;;;31.58;6.28;;;5.20;99.90;;;;;;5053147;28;20091;-54
2022/01/30 05:55:59;;;;;;;40.13;7.35;;;5.20;99.90;;;;;;5052748;28;20048;-51
2022/01/30 05:58:24;;;;;;;35.40;6.50;;;5.20;99.90;;;;;;5052546;28;20044;-53
2022/01/30 06:00:50;;;;;;;39.35;6.47;;;5.20;99.90;;;;;;5054069;28;20098;-53
2022/01/30 06:03:16;;;;;;;33.15;6.22;;;5.20;99.90;;;;;;5053569;28;20049;-54
2022/01/30 06:05:45;;;;;;;32.33;7.07;;;5.20;99.90;;;;;;5051816;28;20044;-53
2022/01/30 06:08:14;;;;;;;34.97;6.55;;;5.20;99.90;;;;;;5053912;28;20049;-53
2022/01/30 06:10:40;;;;;;;33.65;7.78;;;5.20;99.90;;;;;;5054089;28;20065;-53
2022/01/30 06:13:05;;;;;;;37.05;7.68;;;5.20;99.90;;;;;;5051562;28;20091;-53
2022/01/30 06:15:31;;;;;;;35.58;7.00;;;5.10;99.90;;;;;;5052158;28;20037;-53
2022/01/30 06:17:56;;;;;;;42.45;8.00;;;5.10;99.90;;;;;;5047971;28;20055;-52
2022/01/30 06:20:22;;;;;;;46.67;7.22;;;5.00;99.90;;;;;;5043104;28;20117;-51
2022/01/30 06:22:47;;;;;;;33.92;6.50;;;4.90;99.90;;;;;;5026872;28;20059;-52
2022/01/30 06:25:14;;;;;;;33.47;6.85;;;4.90;99.90;;;;;;5045970;28;20114;-53
2022/01/30 06:27:40;;;;;;;33.47;7.07;;;4.80;99.90;;;;;;5044180;28;20380;-52
2022/01/30 06:30:07;;;;;;;33.25;6.45;;;4.80;99.90;;;;;;5026232;28;20079;-52
2022/01/30 06:32:33;;;;;;;40.63;7.15;;;4.70;99.90;;;;;;5046667;28;20083;-53
2022/01/30 06:34:59;;;;;;;38.40;6.68;;;4.60;99.90;;;;;;5047528;28;20068;-53
2022/01/30 06:37:25;;;;;;;36.35;6.85;;;4.60;99.90;;;;;;5045305;28;20437;-52
2022/01/30 06:39:50;;;;;;;34.80;7.10;;;4.60;99.90;;;;;;5046176;28;20052;-51
2022/01/30 06:42:18;;;;;;;35.60;7.25;;;4.60;99.90;;;;;;5043054;28;20041;-53
2022/01/30 06:44:44;;;;;;;36.20;6.95;;;4.60;99.90;;;;;;5045665;28;20063;-49
2022/01/30 06:47:10;;;;;;;43.85;7.32;;;4.50;99.90;;;;;;5044220;28;20093;-53
2022/01/30 06:49:36;;;;;;;31.80;6.38;;;4.60;99.90;;;;;;5043585;28;20036;-53
2022/01/30 06:52:01;;;;;;;38.85;7.03;;;4.60;99.90;;;;;;5025854;28;20071;-52
2022/01/30 06:54:27;;;;;;;43.88;7.43;;;4.70;99.90;;;;;;5045962;28;20491;-51
2022/01/30 06:56:53;;;;;;;39.88;7.72;;;4.70;99.90;;;;;;5047056;28;20033;-50
2022/01/30 06:59:18;;;;;;;39.40;7.18;;;4.80;99.90;;;;;;5042470;28;21152;-53
2022/01/30 07:01:44;;;;;;;45.85;7.20;;;4.90;99.90;;;;;;5041116;28;20037;-50
2022/01/30 07:04:10;;;;;;;37.35;7.55;;;5.00;99.90;;;;;;5043767;28;20120;-50
2022/01/30 07:06:35;;;;;;;38.90;7.70;;;5.00;99.90;;;;;;5042930;28;20071;-54
2022/01/30 07:09:01;;;;;;;40.97;8.40;;;5.00;99.90;;;;;;5043192;28;20124;-53
2022/01/30 07:11:27;;;;;;;39.10;7.10;;;5.00;99.90;;;;;;5026279;28;20118;-53
2022/01/30 07:13:52;;;;;;;36.13;6.95;;;5.10;99.90;;;;;;5043107;28;20044;-54
2022/01/30 07:16:18;;;;;;;35.72;7.32;;;5.00;99.90;;;;;;5043246;28;20091;-53
2022/01/30 07:18:43;;;;;;;43.85;7.00;;;5.00;99.90;;;;;;5046132;28;20222;-52
2022/01/30 07:21:09;;;;;;;41.47;6.75;;;5.10;99.90;;;;;;5042372;28;20107;-54
2022/01/30 07:23:38;;;;;;;35.00;7.20;;;5.00;99.90;;;;;;5041059;28;20104;-52
2022/01/30 07:26:04;;;;;;;35.00;7.07;;;5.10;99.90;;;;;;5041003;28;20049;-53
2022/01/30 07:28:30;;;;;;;39.35;7.03;;;5.10;99.90;;;;;;5042728;28;20049;-52
2022/01/30 07:30:56;;;;;;;33.75;7.05;;;5.10;99.90;;;;;;5042043;28;20127;-51
2022/01/30 07:33:22;;;;;;;34.50;7.18;;;5.10;99.90;;;;;;5042219;28;20055;-52
2022/01/30 07:35:50;;;;;;;36.15;7.55;;;5.10;99.90;;;;;;5041551;28;20053;-51
2022/01/30 07:38:16;;;;;;;38.03;7.32;;;5.10;99.90;;;;;;5041098;28;20455;-51
2022/01/30 07:40:42;;;;;;;41.15;7.13;;;5.10;99.90;;;;;;5041544;28;20049;-51
2022/01/30 07:43:09;;;;;;;36.75;7.00;;;5.20;99.90;;;;;;5042438;28;20463;-53
2022/01/30 07:45:35;;;;;;;43.30;8.38;;;5.20;99.90;;;;;;5041991;28;20059;-53
2022/01/30 07:48:02;;;;;;;38.40;7.50;;;5.20;99.90;;;;;;5042197;28;20045;-53
2022/01/30 07:50:28;;;;;;;36.65;7.43;;;5.30;99.90;;;;;;5041758;28;20044;-54
2022/01/30 07:52:53;;;;;;;42.17;6.82;;;5.30;99.90;;;;;;5042181;28;20513;-53
2022/01/30 07:55:19;;;;;;;40.72;6.93;;;5.40;99.90;;;;;;5042173;28;20131;-52
2022/01/30 07:57:45;;;;;;;37.25;7.55;;;5.40;99.90;;;;;;5041405;28;20056;-53
2022/01/30 08:00:12;;;;;;;41.72;9.55;;;5.50;99.90;;;;;;5040599;28;20048;-54
2022/01/30 08:02:37;;;;;;;40.67;7.13;;;5.50;99.90;;;;;;5042693;28;20071;-53
2022/01/30 08:05:03;;;;;;;36.95;7.50;;;5.50;99.90;;;;;;5040720;28;20064;-53
2022/01/30 08:07:29;;;;;;;39.28;7.88;;;5.60;99.90;;;;;;5043224;28;20316;-51
2022/01/30 08:09:55;;;;;;;38.85;7.22;;;5.60;99.90;;;;;;5025719;28;20037;-52
2022/01/30 08:12:20;;;;;;;45.30;8.68;;;5.70;99.90;;;;;;5043589;28;20033;-53
2022/01/30 08:14:46;;;;;;;44.95;7.50;;;5.70;99.90;;;;;;5040494;28;20514;-52
2022/01/30 08:17:18;;;;;;;47.00;7.90;;;5.80;99.90;;;;;;5023876;28;20120;-54
2022/01/30 08:19:46;;;;;;;38.35;8.50;;;5.80;99.90;;;;;;5027032;28;20052;-54
2022/01/30 08:22:12;;;;;;;48.55;7.72;;;5.80;99.90;;;;;;5045818;28;20041;-51
2022/01/30 08:24:38;;;;;;;43.15;8.02;;;5.80;99.90;;;;;;5045481;28;20033;-52
2022/01/30 08:27:05;;;;;;;35.90;7.47;;;5.80;99.90;;;;;;5026008;28;20084;-52
2022/01/30 08:29:30;;;;;;;44.90;8.52;;;6.00;99.90;;;;;;5024501;28;20041;-49
2022/01/30 08:31:57;;;;;;;53.40;9.02;;;6.00;99.90;;;;;;5045247;28;20099;-54
2022/01/30 08:34:23;;;;;;;41.13;7.53;;;6.10;99.90;;;;;;5048331;28;20076;-50
2022/01/30 08:36:48;;;;;;;39.85;8.98;;;6.10;99.90;;;;;;5045535;28;20076;-50
2022/01/30 08:39:14;;;;;;;46.40;8.70;;;6.10;99.90;;;;;;5047352;28;20041;-52
2022/01/30 08:41:39;;;;;;;40.47;8.80;;;6.10;99.90;;;;;;5046601;28;20037;-50
2022/01/30 08:44:05;;;;;;;49.80;8.70;;;6.10;99.90;;;;;;5028347;28;20099;-52
2022/01/30 08:46:30;;;;;;;48.28;9.95;;;6.10;99.90;;;;;;5050198;28;20041;-53
2022/01/30 08:48:56;;;;;;;42.33;7.15;;;6.00;99.90;;;;;;5050837;28;20195;-51
2022/01/30 08:51:22;;;;;;;50.72;8.35;;;6.00;99.90;;;;;;5048681;28;20060;-49
2022/01/30 08:53:48;;;;;;;48.97;9.25;;;6.00;99.90;;;;;;5048351;28;21670;-52
2022/01/30 08:56:13;;;;;;;42.35;8.30;;;6.00;99.90;;;;;;5048757;28;20049;-52
2022/01/30 08:58:39;;;;;;;38.88;8.45;;;6.00;99.90;;;;;;5054215;28;20060;-49
2022/01/30 09:01:05;;;;;;;42.65;8.80;;;6.10;99.90;;;;;;5049128;28;20052;-52
2022/01/30 09:03:30;;;;;;;46.45;8.32;;;6.30;99.90;;;;;;5049647;28;20056;-50
2022/01/30 09:05:56;;;;;;;31.17;7.65;;;6.50;99.90;;;;;;5048859;28;20501;-50
2022/01/30 09:08:21;;;;;;;37.15;7.38;;;6.50;99.90;;;;;;5049345;28;20053;-49
2022/01/30 09:10:48;;;;;;;42.50;8.18;;;6.50;99.90;;;;;;5050056;28;20532;-51
2022/01/30 09:13:14;;;;;;;36.78;8.05;;;6.50;99.90;;;;;;5049714;28;20491;-49
2022/01/30 09:15:42;;;;;;;47.72;7.75;;;6.40;99.90;;;;;;5049109;28;20033;-50
2022/01/30 09:18:10;;;;;;;34.97;6.55;;;6.40;99.90;;;;;;5047408;28;20572;-49
2022/01/30 09:20:39;;;;;;;39.90;7.53;;;6.40;99.90;;;;;;5050099;28;20064;-53
2022/01/30 09:23:05;;;;;;;39.53;8.15;;;6.50;99.90;;;;;;5047952;28;20041;-49
2022/01/30 09:25:31;;;;;;;34.45;7.53;;;6.50;99.90;;;;;;5050131;28;20053;-49
2022/01/30 09:27:56;;;;;;;34.35;7.43;;;6.50;99.90;;;;;;5043722;28;20048;-49
2022/01/30 09:30:22;;;;;;;35.72;6.95;;;6.50;99.90;;;;;;5035721;28;20052;-48
2022/01/30 09:32:48;;;;;;;38.20;7.15;;;6.50;99.90;;;;;;5054680;28;20041;-49
2022/01/30 09:35:14;;;;;;;40.08;7.45;;;6.50;99.90;;;;;;5054441;28;20063;-48
2022/01/30 09:37:39;;;;;;;39.05;7.32;;;6.60;99.90;;;;;;5035590;28;20048;-49
2022/01/30 09:40:08;;;;;;;37.10;7.97;;;6.70;99.90;;;;;;5055031;28;20501;-49
2022/01/30 09:42:34;;;;;;;35.67;7.63;;;6.80;99.90;;;;;;5055341;28;20094;-49
2022/01/30 09:45:04;;;;;;;36.92;7.78;;;6.90;99.90;;;;;;5053584;28;20052;-49
2022/01/30 09:47:30;;;;;;;44.13;6.95;;;6.90;99.90;;;;;;5049533;28;20064;-48
2022/01/30 09:49:58;;;;;;;35.35;7.72;;;6.90;99.90;;;;;;5054206;28;20098;-49
2022/01/30 09:52:24;;;;;;;40.08;7.40;;;7.00;99.90;;;;;;5048394;28;20495;-49
2022/01/30 09:54:50;;;;;;;44.78;7.95;;;7.00;99.90;;;;;;5046834;28;20110;-49
2022/01/30 09:57:16;;;;;;;35.10;7.55;;;6.90;99.90;;;;;;5048365;28;20045;-48
2022/01/30 09:59:42;;;;;;;37.05;6.63;;;6.90;99.90;;;;;;5046034;28;20038;-49
2022/01/30 10:02:08;;;;;;;37.25;7.10;;;6.80;99.90;;;;;;5023301;28;20053;-49
2022/01/30 10:04:35;;;;;;;34.17;7.63;;;6.80;99.90;;;;;;5043567;28;20053;-48
2022/01/30 10:07:20;;;;;;;29.75;6.85;;;6.80;99.90;;;;;;5048583;28;20033;-49
2022/01/30 10:09:48;;;;;;;36.88;6.80;;;6.90;99.90;;;;;;5053649;28;20507;-49
2022/01/30 10:12:16;;;;;;;35.70;7.10;;;6.90;99.90;;;;;;5054254;28;20049;-49
2022/01/30 10:15:03;;;;;;;37.95;7.38;;;6.90;99.90;;;;;;5034161;28;20151;-50
2022/01/30 10:17:31;;;;;;;38.78;7.13;;;6.90;99.90;;;;;;5035072;28;20118;-49
2022/01/30 10:20:13;;;;;;;32.70;6.68;;;7.00;99.90;;;;;;5053466;28;20470;-50
2022/01/30 10:22:59;;;;;;;35.17;6.57;;;7.10;99.90;;;;;;5052926;28;20046;-49
2022/01/30 10:25:30;;;;;;;36.90;7.53;;;7.20;99.90;;;;;;5054979;28;20088;-48
2022/01/30 10:28:17;;;;;;;30.85;7.00;;;7.40;99.90;;;;;;5053720;28;20045;-50
2022/01/30 10:30:51;;;;;;;34.53;8.27;;;7.50;99.90;;;;;;5054181;28;20079;-48
2022/01/30 10:33:23;;;;;;;32.78;6.15;;;7.50;99.90;;;;;;5055602;28;20041;-50
2022/01/30 10:35:57;;;;;;;38.97;7.25;;;7.50;99.90;;;;;;5034846;28;20049;-52
2022/01/30 10:38:36;;;;;;;36.75;7.03;;;7.40;99.90;;;;;;5053928;28;20149;-49
2022/01/30 10:41:12;;;;;;;44.00;8.13;;;7.40;99.90;;;;;;5045544;28;20053;-51
2022/01/30 10:43:52;;;;;;;26.60;5.35;;;7.50;99.90;;;;;;5049546;28;20068;-50
2022/01/30 10:46:25;;;;;;;35.92;6.75;;;7.40;99.90;;;;;;5051703;28;20559;-50
2022/01/30 10:49:03;;;;;;;37.00;7.30;;;7.50;99.90;;;;;;5050727;28;20037;-49
2022/01/30 10:51:31;;;;;;;35.05;7.50;;;7.50;99.90;;;;;;5053127;28;20112;-48
2022/01/30 10:54:08;;;;;;;37.00;7.85;;;7.50;99.90;;;;;;5050704;28;20163;-50
2022/01/30 10:56:35;;;;;;;39.42;8.00;;;7.50;99.90;;;;;;5050110;28;20055;-52
2022/01/30 10:59:07;;;;;;;38.40;7.03;;;7.50;99.90;;;;;;5034348;28;20435;-52
2022/01/30 11:01:33;;;;;;;37.33;7.32;;;7.60;99.90;;;;;;5049902;28;20463;-51
2022/01/30 11:04:00;;;;;;;39.03;7.50;;;7.50;99.90;;;;;;5053859;28;20043;-50
2022/01/30 11:06:30;;;;;;;39.15;8.48;;;7.50;99.90;;;;;;5053791;28;20049;-52
2022/01/30 11:09:07;;;;;;;41.92;7.80;;;7.40;99.90;;;;;;5052957;28;20129;-51
2022/01/30 11:11:39;;;;;;;37.10;7.90;;;7.30;99.90;;;;;;5051723;28;20486;-52
2022/01/30 11:19:18;;;;;;;43.70;7.82;;;7.20;99.90;;;;;;5053030;28;20049;-52
2022/01/30 11:21:47;;;;;;;;;;;7.30;99.90;;;;;;5052248;28;20501;-53
2022/01/30 11:24:14;;;;;;;40.92;7.53;;;7.30;99.90;;;;;;5052773;28;19927;-50
2022/01/30 11:26:40;;;;;;;40.13;7.40;;;7.30;99.90;;;;;;5053146;28;20056;-53
2022/01/30 11:29:14;;;;;;;40.08;8.43;;;7.40;99.90;;;;;;5053183;28;20364;-53
2022/01/30 11:31:40;;;;;;;35.20;7.22;;;7.60;99.90;;;;;;5051551;28;20036;-52
2022/01/30 11:34:07;;;;;;;38.67;7.60;;;7.70;99.90;;;;;;5053246;28;20049;-52
2022/01/30 11:36:34;;;;;;;40.42;7.57;;;7.90;99.90;;;;;;5053500;28;20062;-49
2022/01/30 11:39:00;;;;;;;39.90;8.10;;;7.90;99.90;;;;;;5053136;28;20033;-50
2022/01/30 11:41:26;;;;;;;34.17;6.70;;;8.00;99.90;;;;;;5052690;28;20386;-53
2022/01/30 11:44:17;;;;;;;35.13;6.88;;;7.90;99.90;;;;;;5054196;28;20072;-54
2022/01/30 11:46:52;;;;;;;33.88;6.80;;;7.90;99.90;;;;;;5034238;28;20084;-54
2022/01/30 11:49:18;;;;;;;44.95;7.70;;;7.90;99.90;;;;;;5037117;28;20071;-54
2022/01/30 11:51:49;;;;;;;39.33;7.60;;;7.90;99.90;;;;;;5052028;28;20053;-50
2022/01/30 11:54:35;;;;;;;33.97;6.47;;;7.90;99.90;;;;;;5033816;28;20045;-51
2022/01/30 11:57:01;;;;;;;31.83;6.40;;;7.80;99.90;;;;;;5050054;28;20391;-51
2022/01/30 11:59:40;;;;;;;34.72;6.90;;;7.60;99.90;;;;;;5033460;28;20041;-49
2022/01/30 12:02:24;;;;;;;44.40;7.65;;;7.50;99.90;;;;;;5045856;28;20065;-53
2022/01/30 12:05:11;;;;;;;31.52;6.88;;;7.40;99.90;;;;;;5046678;28;20051;-49
2022/01/30 12:07:48;;;;;;;32.55;6.88;;;7.30;99.90;;;;;;5050889;28;20419;-51
2022/01/30 12:10:24;;;;;;;44.53;6.53;;;7.20;99.90;;;;;;5041080;28;20041;-51
2022/01/30 12:12:57;;;;;;;33.80;6.47;;;7.10;99.90;;;;;;5051254;28;20041;-50
2022/01/30 12:15:45;;;;;;;38.97;8.38;;;7.00;99.90;;;;;;5050949;28;20145;-48
2022/01/30 12:18:44;;;;;;;31.35;5.97;;;7.10;99.90;;;;;;5050888;28;20135;-52
2022/01/30 12:21:14;;;;;;;35.65;6.95;;;7.30;99.90;;;;;;5051231;28;20037;-52
2022/01/30 12:23:42;;;;;;;32.70;7.47;;;7.30;99.90;;;;;;5051441;28;20124;-50
2022/01/30 12:26:16;;;;;;;21.92;4.65;;;7.20;99.90;;;;;;5048576;28;20060;-49
2022/01/30 12:28:52;;;;;;;35.63;6.80;;;7.10;99.90;;;;;;5052125;28;20048;-49
2022/01/30 12:31:32;;;;;;;36.55;7.25;;;7.10;99.90;;;;;;5051445;28;20056;-51
2022/01/30 12:34:09;;;;;;;31.13;6.40;;;7.10;99.90;;;;;;5034142;28;20041;-50
2022/01/30 12:36:59;;;;;;;31.33;6.93;;;7.00;99.90;;;;;;5052603;28;20045;-49
2022/01/30 12:39:24;;;;;;;38.67;7.05;;;7.20;99.90;;;;;;5047625;28;20121;-52
2022/01/30 12:41:51;;;;;;;38.15;6.05;;;7.30;99.90;;;;;;5051863;28;20507;-50
2022/01/30 12:44:20;;;;;;;38.90;6.35;;;7.40;99.90;;;;;;5051854;28;20410;-50
2022/01/30 12:46:49;;;;;;;26.70;5.68;;;7.50;98.60;;;;;;5033736;28;20076;-51
2022/01/30 12:49:27;;;;;;;33.72;5.95;;;7.50;99.90;;;;;;5052086;28;20053;-52
2022/01/30 12:51:55;;;;;;;28.00;6.53;;;7.60;98.30;;;;;;5029332;28;20041;-53
2022/01/30 12:54:23;;;;;;;33.65;6.35;;;7.70;99.60;;;;;;5029322;28;20619;-52
2022/01/30 12:56:50;;;;;;;28.45;6.15;;;7.70;98.90;;;;;;5032023;28;20038;-52
2022/01/30 12:59:17;;;;;;;30.33;5.30;;;7.60;96.60;;;;;;5029105;28;20406;-51
2022/01/30 13:01:45;;;;;;;24.77;5.20;;;7.60;97.10;;;;;;5031530;28;20046;-50
2022/01/30 13:04:17;;;;;;;29.42;6.70;;;7.60;96.40;;;;;;5029002;28;20042;-53
2022/01/30 13:06:53;;;;;;;34.22;5.80;;;7.60;96.40;;;;;;5029683;28;20317;-52
2022/01/30 13:09:30;;;;;;;25.00;5.68;;;7.70;97.30;;;;;;5031687;28;20049;-50
2022/01/30 13:11:59;;;;;;;34.90;5.80;;;7.80;98.00;;;;;;5031895;28;20093;-53
2022/01/30 13:14:37;;;;;;;32.33;6.15;;;7.80;96.50;;;;;;5031504;28;20042;-51
2022/01/30 13:17:04;;;;;;;29.67;5.47;;;7.90;97.70;;;;;;5032473;28;20060;-53
2022/01/30 13:19:36;;;;;;;26.85;5.40;;;7.90;98.10;;;;;;5031905;28;20034;-53
2022/01/30 13:22:04;;;;;;;32.97;6.28;;;7.80;97.70;;;;;;5030798;28;20042;-50
2022/01/30 13:24:30;;;;;;;25.67;5.25;;;7.70;97.90;;;;;;5029912;28;20427;-50
2022/01/30 13:26:58;;;;;;;25.48;5.45;;;7.70;96.90;;;;;;5032239;28;20049;-49
2022/01/30 13:29:25;;;;;;;26.23;5.95;;;7.60;94.40;;;;;;5030412;28;20487;-52
2022/01/30 13:31:56;;;;;;;27.88;5.10;;;7.70;96.40;;;;;;5030659;28;20045;-51
2022/01/30 13:34:27;;;;;;;25.17;5.82;;;7.60;95.50;;;;;;5030515;28;20111;-52
2022/01/30 13:36:59;;;;;;;29.67;5.93;;;7.70;96.40;;;;;;5032415;28;20053;-53
2022/01/30 13:39:34;;;;;;;31.50;6.60;;;7.80;97.60;;;;;;5029402;28;20041;-50
2022/01/30 13:42:30;;;;;;;25.65;5.53;;;7.80;99.60;;;;;;5031738;28;20049;-51
2022/01/30 13:47:42;;;;;;;25.77;5.63;;;8.00;99.90;;;;;;5032080;28;20075;-52
2022/01/30 13:50:15;;;;;;;25.58;6.18;;;8.00;98.90;;;;;;5030102;28;20053;-52
2022/01/30 13:52:41;;;;;;;32.50;6.78;;;8.10;98.70;;;;;;5029537;28;20049;-52
2022/01/30 13:55:07;;;;;;;27.73;5.72;;;8.10;98.60;;;;;;5043737;28;20338;-50
2022/01/30 13:57:34;;;;;;;35.03;7.65;;;8.20;98.80;;;;;;5053501;28;20465;-52